Time;durP1;ratioP1;P1;durP2;ratioP2;P2;SDS_P1;SDS_P2;PMS_P1;PMS_P2;Temp;Humidity;BMP_temperature;BMP_pressure;BME280_temperature;BME280_humidity;BME280_pressure;Samples;Min_cycle;Max_cycle;Signal;HPM_P1;HPM_P2
2022/05/28 00:00:09;;;;;;;9.52;3.50;;;20.90;64.80;;;;;;5033717;28;20514;-56
2022/05/28 00:02:34;;;;;;;11.23;3.80;;;20.90;64.70;;;;;;5038794;28;20032;-57
2022/05/28 00:05:00;;;;;;;9.30;3.78;;;20.90;64.80;;;;;;5038573;28;20021;-56
2022/05/28 00:07:26;;;;;;;8.73;3.75;;;20.90;64.70;;;;;;5033705;28;20490;-56
2022/05/28 00:09:51;;;;;;;10.52;3.97;;;20.90;64.80;;;;;;5033864;28;20140;-57
2022/05/28 00:12:17;;;;;;;9.43;3.60;;;20.90;64.80;;;;;;5036930;28;20675;-56
2022/05/28 00:14:42;;;;;;;8.57;3.70;;;20.90;64.90;;;;;;5035512;28;20443;-57
2022/05/28 00:17:08;;;;;;;9.93;3.45;;;20.90;64.80;;;;;;5034444;28;20087;-57
2022/05/28 00:19:34;;;;;;;11.18;3.40;;;20.80;64.80;;;;;;5039308;28;20029;-56
2022/05/28 00:21:59;;;;;;;8.60;3.45;;;20.80;64.80;;;;;;5039353;28;20027;-56
2022/05/28 00:24:27;;;;;;;8.75;3.42;;;20.80;64.80;;;;;;5043143;28;20136;-57
2022/05/28 00:26:53;;;;;;;8.15;3.45;;;20.80;64.70;;;;;;5036960;28;20573;-57
2022/05/28 00:29:18;;;;;;;9.90;3.90;;;20.80;64.80;;;;;;5034559;28;20108;-57
2022/05/28 00:31:44;;;;;;;11.40;3.60;;;20.80;64.80;;;;;;5032439;28;20064;-57
2022/05/28 00:34:09;;;;;;;10.82;3.67;;;20.80;64.80;;;;;;5033207;28;20154;-57
2022/05/28 00:36:35;;;;;;;8.90;3.53;;;20.80;64.80;;;;;;5039437;28;20064;-57
2022/05/28 00:39:01;;;;;;;11.50;3.83;;;20.70;64.70;;;;;;5031837;28;20028;-56
2022/05/28 00:41:26;;;;;;;9.05;3.45;;;20.80;64.80;;;;;;5036584;28;20025;-56
2022/05/28 00:43:52;;;;;;;10.45;4.03;;;20.70;64.70;;;;;;5034233;28;20486;-57
2022/05/28 00:46:25;;;;;;;11.65;3.92;;;20.70;64.70;;;;;;5032083;28;20509;-57
2022/05/28 00:48:53;;;;;;;8.65;3.30;;;20.70;64.70;;;;;;5045171;28;20068;-56
2022/05/28 00:51:27;;;;;;;9.68;3.78;;;20.70;64.70;;;;;;5032518;28;20041;-57
2022/05/28 00:53:54;;;;;;;9.95;3.53;;;20.70;64.70;;;;;;5036213;28;20044;-57
2022/05/28 00:56:22;;;;;;;9.40;3.40;;;20.70;64.70;;;;;;5034859;28;20083;-57
2022/05/28 00:58:48;;;;;;;11.07;4.22;;;20.70;64.60;;;;;;5032396;28;20506;-56
2022/05/28 01:01:14;;;;;;;10.55;3.80;;;20.70;64.70;;;;;;5033509;28;20060;-56
2022/05/28 01:03:55;;;;;;;9.63;3.63;;;20.70;64.60;;;;;;5038234;28;20057;-56
2022/05/28 01:06:24;;;;;;;9.95;3.40;;;20.70;64.70;;;;;;5031231;28;20053;-57
2022/05/28 01:08:52;;;;;;;8.75;3.20;;;20.60;64.60;;;;;;5032564;28;20544;-56
2022/05/28 01:11:49;;;;;;;10.18;3.95;;;20.60;64.50;;;;;;5063920;28;20035;-57
2022/05/28 01:14:36;;;;;;;9.23;3.70;;;20.60;64.50;;;;;;5038258;28;20025;-57
2022/05/28 01:17:13;;;;;;;10.48;3.92;;;20.60;64.50;;;;;;5034342;28;20036;-57
2022/05/28 01:19:39;;;;;;;12.70;3.85;;;20.60;64.50;;;;;;5041404;28;20116;-56
2022/05/28 01:22:14;;;;;;;9.90;3.70;;;20.60;64.50;;;;;;5035155;28;20104;-57
2022/05/28 01:24:46;;;;;;;9.35;3.40;;;20.60;64.50;;;;;;5037708;28;20545;-57
2022/05/28 01:27:41;;;;;;;7.10;3.40;;;20.60;64.50;;;;;;5039244;28;20034;-57
2022/05/28 01:30:08;;;;;;;8.55;3.33;;;20.60;64.50;;;;;;5035888;28;20498;-57
2022/05/28 01:32:34;;;;;;;7.75;3.20;;;20.60;64.50;;;;;;5049474;28;20116;-57
2022/05/28 01:35:00;;;;;;;11.60;3.28;;;20.50;64.40;;;;;;5040294;28;20108;-57
2022/05/28 01:37:25;;;;;;;10.13;3.80;;;20.50;64.40;;;;;;5039407;28;20043;-57
2022/05/28 01:39:51;;;;;;;12.18;3.83;;;20.50;64.40;;;;;;5042434;28;20033;-57
2022/05/28 01:42:17;;;;;;;10.90;3.30;;;20.50;64.40;;;;;;5038192;28;20032;-56
2022/05/28 01:44:43;;;;;;;8.88;3.30;;;20.50;64.40;;;;;;5035016;28;20036;-57
2022/05/28 01:47:10;;;;;;;8.90;3.22;;;20.50;64.40;;;;;;5050509;28;20099;-57
2022/05/28 01:49:36;;;;;;;7.93;2.88;;;20.50;64.40;;;;;;5048450;28;20112;-57
2022/05/28 01:52:02;;;;;;;8.80;3.03;;;20.50;64.40;;;;;;5041659;28;20112;-56
2022/05/28 01:54:29;;;;;;;8.93;3.50;;;20.50;64.40;;;;;;5039011;28;20057;-56
2022/05/28 01:56:55;;;;;;;9.70;3.50;;;20.50;64.50;;;;;;5019524;28;20453;-56
2022/05/28 01:59:23;;;;;;;9.63;3.20;;;20.50;64.40;;;;;;5036089;28;20025;-56
2022/05/28 02:01:48;;;;;;;8.18;2.83;;;20.50;64.40;;;;;;5032163;28;20025;-57
2022/05/28 02:04:14;;;;;;;8.20;3.22;;;20.40;64.40;;;;;;5035633;28;20037;-57
2022/05/28 02:06:40;;;;;;;8.80;3.20;;;20.40;64.40;;;;;;5034414;28;20029;-57
2022/05/28 02:09:13;;;;;;;8.40;3.22;;;20.40;64.40;;;;;;5032717;28;20029;-57
2022/05/28 02:12:14;;;;;;;9.73;2.97;;;20.40;64.40;;;;;;5039292;28;20386;-57
2022/05/28 02:15:02;;;;;;;8.57;3.30;;;20.40;64.40;;;;;;5016947;28;20045;-56
2022/05/28 02:17:50;;;;;;;10.00;3.45;;;20.40;64.40;;;;;;5021923;28;20045;-56
2022/05/28 02:20:18;;;;;;;9.80;3.53;;;20.40;64.40;;;;;;5020261;28;20502;-57
2022/05/28 02:23:26;;;;;;;8.85;3.40;;;20.40;64.40;;;;;;5012127;28;20021;-57
2022/05/28 02:26:13;;;;;;;6.80;3.20;;;20.40;64.40;;;;;;4962690;28;20482;-57
2022/05/28 02:28:39;;;;;;;11.73;3.42;;;20.40;64.50;;;;;;4963797;28;20045;-57
2022/05/28 02:31:18;;;;;;;9.40;3.22;;;20.40;64.50;;;;;;4928639;28;20951;-56
2022/05/28 02:33:44;;;;;;;8.90;3.28;;;20.30;64.40;;;;;;4948794;28;20023;-56
2022/05/28 02:36:13;;;;;;;10.77;3.70;;;20.30;64.40;;;;;;4966348;28;20057;-56
2022/05/28 02:38:39;;;;;;;8.52;3.28;;;20.30;64.40;;;;;;4937591;28;20074;-57
2022/05/28 02:41:04;;;;;;;8.25;2.97;;;20.30;64.40;;;;;;4961892;28;20074;-56
2022/05/28 02:43:31;;;;;;;8.07;3.30;;;20.30;64.40;;;;;;4963728;28;20034;-57
2022/05/28 02:45:58;;;;;;;8.75;3.15;;;20.30;64.50;;;;;;4961937;28;20533;-56
2022/05/28 02:48:23;;;;;;;9.27;3.08;;;20.30;64.40;;;;;;4968691;28;20054;-56
2022/05/28 02:50:49;;;;;;;9.50;3.30;;;20.30;64.40;;;;;;4966186;28;20027;-57
2022/05/28 02:53:15;;;;;;;9.93;3.30;;;20.30;64.40;;;;;;4946029;28;20547;-57
2022/05/28 02:55:40;;;;;;;8.60;3.30;;;20.30;64.40;;;;;;4945678;28;20067;-56
2022/05/28 02:58:06;;;;;;;7.18;2.80;;;20.30;64.40;;;;;;4947931;28;20420;-56
2022/05/28 03:00:32;;;;;;;8.13;3.17;;;20.20;64.40;;;;;;4957146;28;20087;-57
2022/05/28 03:02:57;;;;;;;10.40;3.60;;;20.30;64.50;;;;;;4994181;28;20037;-56
2022/05/28 03:05:24;;;;;;;9.02;3.42;;;20.20;64.40;;;;;;4994768;28;20053;-57
2022/05/28 03:07:50;;;;;;;8.00;2.85;;;20.20;64.40;;;;;;4993832;28;20065;-57
2022/05/28 03:10:16;;;;;;;9.93;3.55;;;20.20;64.40;;;;;;4994687;28;20530;-56
2022/05/28 03:12:42;;;;;;;7.82;2.95;;;20.20;64.40;;;;;;4998837;28;20045;-57
2022/05/28 03:15:08;;;;;;;8.90;3.45;;;20.20;64.50;;;;;;4991613;28;20030;-56
2022/05/28 03:17:34;;;;;;;9.60;3.10;;;20.20;64.50;;;;;;4995294;28;20030;-56
2022/05/28 03:20:01;;;;;;;9.95;3.30;;;20.20;64.50;;;;;;4996148;28;20045;-57
2022/05/28 03:22:27;;;;;;;9.43;3.20;;;20.20;64.50;;;;;;4989119;28;20488;-56
2022/05/28 03:24:53;;;;;;;8.88;3.13;;;20.20;64.60;;;;;;4989286;28;20503;-56
2022/05/28 03:27:19;;;;;;;8.05;2.92;;;20.20;64.50;;;;;;4993546;28;20053;-57
2022/05/28 03:29:44;;;;;;;10.02;3.00;;;20.20;64.50;;;;;;4999059;28;20080;-56
2022/05/28 03:32:10;;;;;;;9.27;3.08;;;20.10;64.50;;;;;;4995045;28;20133;-56
2022/05/28 03:34:36;;;;;;;7.45;3.28;;;20.10;64.50;;;;;;4992006;28;20089;-56
2022/05/28 03:37:02;;;;;;;9.98;3.28;;;20.20;64.60;;;;;;4990708;28;20049;-56
2022/05/28 03:39:28;;;;;;;7.32;3.13;;;20.10;64.50;;;;;;4994723;28;20030;-57
2022/05/28 03:41:54;;;;;;;8.73;2.83;;;20.10;64.60;;;;;;4996073;28;20323;-57
2022/05/28 03:44:19;;;;;;;6.90;2.75;;;20.10;64.50;;;;;;4997840;28;20033;-56
2022/05/28 03:46:45;;;;;;;8.25;3.10;;;20.10;64.50;;;;;;5002934;28;20044;-57
2022/05/28 03:49:29;;;;;;;7.70;2.92;;;20.10;64.50;;;;;;5043032;28;20434;-57
2022/05/28 03:51:55;;;;;;;7.65;2.95;;;20.10;64.60;;;;;;5041942;28;20040;-56
2022/05/28 03:54:21;;;;;;;10.20;3.33;;;20.10;64.50;;;;;;5038317;28;20034;-56
2022/05/28 03:56:46;;;;;;;6.95;2.70;;;20.10;64.50;;;;;;5033616;28;20445;-56
2022/05/28 03:59:16;;;;;;;7.22;2.90;;;20.10;64.50;;;;;;5050658;28;20537;-57
2022/05/28 04:01:42;;;;;;;8.93;2.80;;;20.00;64.50;;;;;;5041267;28;20025;-56
2022/05/28 04:04:08;;;;;;;7.78;3.10;;;20.00;64.50;;;;;;5039561;28;20072;-57
2022/05/28 04:06:34;;;;;;;9.45;3.30;;;20.10;64.50;;;;;;5036825;28;20082;-57
2022/05/28 04:09:00;;;;;;;6.18;2.63;;;20.00;64.50;;;;;;5071549;28;20037;-57
2022/05/28 04:11:26;;;;;;;8.05;2.58;;;20.00;64.50;;;;;;5039555;28;20535;-57
2022/05/28 04:13:52;;;;;;;6.63;2.90;;;20.00;64.50;;;;;;5032111;28;20127;-56
2022/05/28 04:16:19;;;;;;;7.70;2.80;;;20.00;64.50;;;;;;5031817;28;20064;-57
2022/05/28 04:18:44;;;;;;;7.45;2.70;;;20.00;64.50;;;;;;5043096;28;20428;-57
2022/05/28 04:21:10;;;;;;;7.78;2.90;;;20.00;64.50;;;;;;5033394;28;20030;-57
2022/05/28 04:23:37;;;;;;;8.70;2.85;;;20.00;64.50;;;;;;5041256;28;20042;-56
2022/05/28 04:26:03;;;;;;;9.40;3.10;;;20.00;64.50;;;;;;5036549;28;20013;-57
2022/05/28 04:28:29;;;;;;;8.82;3.03;;;20.00;64.50;;;;;;5032108;28;20040;-57
2022/05/28 04:30:55;;;;;;;7.72;2.50;;;20.00;64.50;;;;;;5043762;28;20021;-56
2022/05/28 04:33:21;;;;;;;9.38;2.70;;;20.00;64.50;;;;;;5039410;28;20548;-57
2022/05/28 04:35:46;;;;;;;7.47;2.67;;;20.00;64.50;;;;;;5044731;28;20024;-56
2022/05/28 04:38:12;;;;;;;5.53;2.50;;;20.00;64.50;;;;;;5040578;28;20037;-57
2022/05/28 04:40:38;;;;;;;8.15;2.95;;;20.00;64.50;;;;;;5047624;28;20525;-57
2022/05/28 04:43:03;;;;;;;8.45;2.75;;;19.90;64.40;;;;;;5043468;28;20032;-57
2022/05/28 04:45:29;;;;;;;7.25;2.55;;;19.90;65.50;;;;;;5036721;28;20032;-57
2022/05/28 04:47:55;;;;;;;5.85;2.60;;;19.90;64.40;;;;;;5032722;28;20084;-57
2022/05/28 04:50:21;;;;;;;7.85;2.70;;;19.90;64.50;;;;;;5034703;28;20052;-56
2022/05/28 04:52:46;;;;;;;7.07;2.50;;;19.90;64.40;;;;;;5037681;28;20061;-57
2022/05/28 04:55:12;;;;;;;8.88;3.10;;;19.90;64.40;;;;;;5033806;28;20536;-56
2022/05/28 04:57:38;;;;;;;8.98;2.70;;;19.90;64.40;;;;;;5037560;28;20043;-56
2022/05/28 05:00:06;;;;;;;8.32;2.75;;;19.90;64.40;;;;;;5035683;28;20032;-56
2022/05/28 05:02:32;;;;;;;6.22;2.50;;;19.80;64.40;;;;;;5034341;28;20047;-57
2022/05/28 05:04:57;;;;;;;7.45;2.70;;;19.90;64.50;;;;;;5032348;28;20034;-57
2022/05/28 05:07:24;;;;;;;8.05;2.75;;;19.80;64.40;;;;;;5031786;28;20234;-57
2022/05/28 05:09:49;;;;;;;7.63;2.60;;;19.90;64.50;;;;;;5031575;28;20018;-57
2022/05/28 05:12:15;;;;;;;7.07;2.97;;;19.80;64.40;;;;;;5032007;28;20111;-56
2022/05/28 05:14:41;;;;;;;6.20;2.40;;;19.80;64.40;;;;;;5019678;28;20446;-57
2022/05/28 05:17:06;;;;;;;5.97;2.60;;;19.80;64.40;;;;;;5037490;28;20033;-56
2022/05/28 05:19:32;;;;;;;7.53;2.78;;;19.90;64.40;;;;;;5031767;28;20021;-57
2022/05/28 05:21:57;;;;;;;7.15;2.60;;;19.80;64.40;;;;;;5032274;28;20043;-56
2022/05/28 05:24:24;;;;;;;7.35;2.58;;;19.80;64.40;;;;;;5030349;28;20037;-56
2022/05/28 05:26:49;;;;;;;7.93;2.50;;;19.80;64.50;;;;;;5035030;28;20097;-57
2022/05/28 05:29:15;;;;;;;6.82;2.70;;;19.80;64.40;;;;;;5037567;28;20033;-57
2022/05/28 05:31:42;;;;;;;7.25;2.88;;;19.80;64.40;;;;;;5032592;28;20041;-56
2022/05/28 05:34:08;;;;;;;7.97;2.42;;;19.80;64.40;;;;;;5033195;28;20113;-56
2022/05/28 05:36:33;;;;;;;7.65;2.25;;;19.80;64.40;;;;;;5034761;28;20120;-56
2022/05/28 05:38:59;;;;;;;8.30;2.88;;;19.80;64.40;;;;;;5034973;28;20120;-56
2022/05/28 05:41:25;;;;;;;5.82;2.42;;;19.80;64.40;;;;;;5032125;28;20111;-57
2022/05/28 05:43:50;;;;;;;6.82;2.40;;;19.80;64.40;;;;;;5029589;28;20124;-57
2022/05/28 05:46:16;;;;;;;7.10;2.70;;;19.80;64.40;;;;;;5031736;28;20036;-57
2022/05/28 05:48:42;;;;;;;6.38;2.65;;;19.80;64.40;;;;;;5030647;28;20053;-57
2022/05/28 05:51:13;;;;;;;6.22;2.40;;;19.80;64.40;;;;;;5035287;28;20547;-56
2022/05/28 05:53:38;;;;;;;7.05;2.58;;;19.80;64.40;;;;;;5033261;28;20029;-57
2022/05/28 05:56:04;;;;;;;6.13;2.28;;;19.70;64.40;;;;;;5035517;28;20078;-57
2022/05/28 05:58:30;;;;;;;7.82;2.70;;;19.80;64.30;;;;;;5031331;28;20033;-56
2022/05/28 06:00:56;;;;;;;8.32;2.70;;;19.80;64.40;;;;;;5065959;28;20028;-57
2022/05/28 06:03:21;;;;;;;6.80;2.47;;;19.70;64.30;;;;;;5034508;28;20044;-56
2022/05/28 06:05:47;;;;;;;5.57;2.30;;;19.70;64.40;;;;;;5032923;28;20116;-56
2022/05/28 06:08:15;;;;;;;6.65;2.58;;;19.70;64.30;;;;;;5032264;28;20033;-56
2022/05/28 06:10:42;;;;;;;6.28;2.40;;;19.70;64.40;;;;;;5036480;28;20412;-57
2022/05/28 06:13:08;;;;;;;7.03;2.35;;;19.70;64.30;;;;;;5035546;28;20038;-56
2022/05/28 06:15:35;;;;;;;6.57;2.50;;;19.70;64.40;;;;;;5048354;28;20036;-56
2022/05/28 06:18:00;;;;;;;7.05;2.58;;;19.70;64.30;;;;;;5033616;28;20152;-56
2022/05/28 06:20:26;;;;;;;7.28;2.60;;;19.70;64.30;;;;;;5032479;28;20131;-56
2022/05/28 06:22:59;;;;;;;6.70;2.60;;;19.70;64.30;;;;;;5036261;28;20028;-55
2022/05/28 06:25:25;;;;;;;17.30;3.83;;;19.70;64.30;;;;;;5037696;28;20116;-55
2022/05/28 06:27:51;;;;;;;17.63;4.03;;;19.60;62.80;;;;;;5041127;28;20191;-56
2022/05/28 06:30:16;;;;;;;17.98;3.33;;;19.60;62.80;;;;;;5033196;28;20397;-55
2022/05/28 06:32:42;;;;;;;14.32;3.50;;;19.60;62.90;;;;;;5042882;28;20448;-56
2022/05/28 06:35:09;;;;;;;19.20;3.92;;;19.60;62.40;;;;;;5032884;28;20596;-56
2022/05/28 06:37:34;;;;;;;20.05;3.88;;;19.60;62.10;;;;;;5035948;28;20044;-54
2022/05/28 06:40:00;;;;;;;18.05;4.00;;;19.60;61.80;;;;;;5034056;28;20126;-55
2022/05/28 06:42:26;;;;;;;22.70;4.40;;;19.70;61.80;;;;;;5038748;28;20055;-55
2022/05/28 06:44:51;;;;;;;17.63;3.50;;;19.70;62.00;;;;;;5040968;28;20459;-56
2022/05/28 06:47:22;;;;;;;23.33;4.55;;;19.70;61.80;;;;;;5035945;28;20099;-56
2022/05/28 06:51:01;;;;;;;22.55;4.05;;;19.70;61.70;;;;;;5040734;28;20156;-55
2022/05/28 06:52:35;;;;;;;25.63;4.22;;;19.70;61.50;;;;;;5034768;28;20529;-56
2022/05/28 06:55:00;;;;;;;25.02;3.90;;;19.70;61.80;;;;;;5028083;28;20095;-56
2022/05/28 06:57:27;;;;;;;22.35;4.55;;;19.70;62.00;;;;;;5037870;28;20034;-56
2022/05/28 06:59:53;;;;;;;21.00;3.95;;;19.60;61.70;;;;;;5033665;28;20037;-56
2022/05/28 07:02:19;;;;;;;27.63;5.28;;;19.60;61.50;;;;;;5041581;28;20032;-56
2022/05/28 07:04:45;;;;;;;23.85;4.40;;;19.60;62.10;;;;;;5032778;28;20108;-56
2022/05/28 07:07:11;;;;;;;19.33;3.80;;;19.60;61.90;;;;;;5036704;28;20127;-56
2022/05/28 07:09:37;;;;;;;24.15;4.72;;;19.60;62.30;;;;;;5045134;28;20028;-56
2022/05/28 07:12:04;;;;;;;25.23;5.13;;;19.60;62.20;;;;;;5051401;28;20039;-56
2022/05/28 07:14:30;;;;;;;26.48;4.75;;;19.60;62.20;;;;;;5039996;28;20064;-57
2022/05/28 07:16:55;;;;;;;21.63;4.50;;;19.60;62.30;;;;;;5041102;28;20025;-56
2022/05/28 07:19:21;;;;;;;23.60;4.18;;;19.60;62.00;;;;;;5039498;28;20021;-56
2022/05/28 07:21:47;;;;;;;25.67;4.47;;;19.60;61.90;;;;;;5039579;28;20033;-56
2022/05/28 07:24:14;;;;;;;25.63;4.28;;;19.60;62.00;;;;;;5038240;28;20029;-56
2022/05/28 07:26:40;;;;;;;23.48;4.60;;;19.60;61.70;;;;;;5036381;28;20026;-56
2022/05/28 07:29:08;;;;;;;25.80;4.82;;;19.60;62.60;;;;;;5036534;28;20017;-56
2022/05/28 07:31:34;;;;;;;20.80;4.28;;;19.60;62.90;;;;;;5036535;28;20111;-56
2022/05/28 07:34:00;;;;;;;28.83;5.32;;;19.60;62.60;;;;;;5046042;28;20486;-56
2022/05/28 07:36:25;;;;;;;23.02;4.57;;;19.60;62.50;;;;;;5037787;28;20087;-55
2022/05/28 07:38:52;;;;;;;19.25;4.28;;;19.60;62.30;;;;;;5039952;28;20075;-55
2022/05/28 07:41:20;;;;;;;27.70;4.53;;;19.60;62.80;;;;;;5038053;28;20074;-55
2022/05/28 07:43:45;;;;;;;24.02;4.55;;;19.70;62.90;;;;;;5034003;28;20025;-55
2022/05/28 07:46:19;;;;;;;17.50;4.25;;;19.70;63.00;;;;;;5033127;28;20091;-55
2022/05/28 07:48:44;;;;;;;20.88;4.07;;;19.70;63.00;;;;;;5036240;28;20506;-56
2022/05/28 07:51:10;;;;;;;23.02;4.65;;;19.70;63.00;;;;;;5036523;28;20033;-56
2022/05/28 07:53:36;;;;;;;22.75;4.32;;;19.80;63.00;;;;;;5034443;28;20501;-55
2022/05/28 07:56:02;;;;;;;19.17;4.20;;;19.80;63.10;;;;;;5035700;28;20040;-56
2022/05/28 07:58:28;;;;;;;24.75;4.65;;;19.70;63.10;;;;;;5035181;28;20086;-55
2022/05/28 08:00:54;;;;;;;22.17;4.43;;;19.80;63.20;;;;;;5036607;28;20485;-56
2022/05/28 08:03:20;;;;;;;15.73;4.30;;;19.80;63.30;;;;;;5039744;28;20087;-55
2022/05/28 08:05:47;;;;;;;19.23;4.03;;;19.80;63.30;;;;;;5034916;28;20021;-55
2022/05/28 08:08:12;;;;;;;22.80;4.65;;;19.80;63.40;;;;;;5035064;28;20593;-56
2022/05/28 08:10:38;;;;;;;21.23;4.68;;;19.80;63.40;;;;;;5033300;28;20025;-56
2022/05/28 08:13:09;;;;;;;16.77;4.10;;;19.80;63.40;;;;;;5034620;28;20045;-56
2022/05/28 08:15:39;;;;;;;16.70;4.70;;;19.90;63.50;;;;;;5036736;28;20465;-56
2022/05/28 08:18:05;;;;;;;17.55;4.07;;;19.90;63.50;;;;;;5038597;28;20433;-56
2022/05/28 08:23:16;;;;;;;18.63;4.80;;;19.90;63.50;;;;;;5032844;28;20028;-56
2022/05/28 08:25:41;;;;;;;17.88;4.25;;;19.90;63.50;;;;;;5065292;28;20692;-55
2022/05/28 08:28:08;;;;;;;21.85;4.50;;;19.90;63.50;;;;;;5033961;28;20096;-54
2022/05/28 08:30:34;;;;;;;21.48;4.45;;;19.90;63.50;;;;;;5034341;28;20086;-56
2022/05/28 08:32:59;;;;;;;18.42;4.10;;;20.00;63.50;;;;;;5033358;28;20029;-55
2022/05/28 08:35:25;;;;;;;19.02;4.60;;;19.90;63.40;;;;;;5043349;28;20031;-54
2022/05/28 08:37:50;;;;;;;17.77;4.18;;;20.00;63.50;;;;;;5035363;28;20025;-55
2022/05/28 08:40:16;;;;;;;15.98;4.25;;;20.00;63.40;;;;;;5033774;28;20031;-55
2022/05/28 08:42:42;;;;;;;16.70;5.22;;;20.00;63.40;;;;;;5037690;28;20148;-56
2022/05/28 08:45:08;;;;;;;18.83;4.22;;;20.00;63.40;;;;;;5035496;28;20475;-55
2022/05/28 08:47:37;;;;;;;17.05;4.30;;;20.00;63.40;;;;;;5065602;28;20048;-56
2022/05/28 08:50:04;;;;;;;17.42;4.50;;;20.00;63.40;;;;;;5033376;28;20025;-56
2022/05/28 08:52:33;;;;;;;16.83;4.57;;;20.00;63.40;;;;;;5045133;28;20656;-56
2022/05/28 08:55:06;;;;;;;22.40;4.72;;;20.10;63.40;;;;;;5044963;28;20021;-55
2022/05/28 08:57:47;;;;;;;15.68;4.18;;;20.10;63.30;;;;;;5027673;28;20556;-55
2022/05/28 09:00:32;;;;;;;15.52;3.97;;;20.10;63.30;;;;;;5036277;28;20025;-55
2022/05/28 09:03:09;;;;;;;14.45;3.95;;;20.10;63.20;;;;;;5034512;28;20025;-54
2022/05/28 09:05:59;;;;;;;14.52;4.50;;;20.10;63.20;;;;;;5063868;28;20045;-55
2022/05/28 09:08:30;;;;;;;14.93;4.22;;;20.10;63.20;;;;;;5035731;28;20042;-55
2022/05/28 09:10:58;;;;;;;15.45;4.57;;;20.20;63.20;;;;;;5040732;28;20619;-55
2022/05/28 09:13:33;;;;;;;18.35;4.70;;;20.20;63.10;;;;;;5024186;28;20037;-55
2022/05/28 09:15:59;;;;;;;15.73;4.13;;;20.20;63.10;;;;;;5044703;28;20127;-55
2022/05/28 09:18:27;;;;;;;14.55;4.28;;;20.20;63.10;;;;;;5006078;28;20079;-55
2022/05/28 09:20:53;;;;;;;14.68;4.28;;;20.20;63.00;;;;;;5010475;28;20532;-55
2022/05/28 09:23:18;;;;;;;14.07;4.32;;;20.20;62.90;;;;;;5039799;28;20025;-54
2022/05/28 09:25:46;;;;;;;14.13;4.18;;;20.20;62.90;;;;;;5043305;28;20044;-54
2022/05/28 09:28:40;;;;;;;17.38;4.45;;;20.20;62.90;;;;;;5024225;28;20647;-54
2022/05/28 09:31:25;;;;;;;10.02;3.63;;;20.20;62.80;;;;;;5011384;28;20036;-56
2022/05/28 09:34:14;;;;;;;15.57;3.90;;;20.30;62.80;;;;;;5044093;28;20033;-57
2022/05/28 09:36:56;;;;;;;15.95;4.15;;;20.30;62.80;;;;;;5035899;28;20076;-55
2022/05/28 09:39:33;;;;;;;16.30;4.10;;;20.30;62.70;;;;;;5006491;28;20088;-56
2022/05/28 09:42:04;;;;;;;12.32;3.78;;;20.40;62.70;;;;;;5035280;28;20033;-55
2022/05/28 09:44:36;;;;;;;11.75;4.18;;;20.30;62.60;;;;;;5034743;28;20055;-56
2022/05/28 09:47:09;;;;;;;13.73;3.85;;;20.40;62.60;;;;;;5033734;28;20033;-55
2022/05/28 09:49:44;;;;;;;14.07;4.03;;;20.40;62.60;;;;;;5031504;28;20029;-56
2022/05/28 09:52:10;;;;;;;15.95;3.85;;;20.30;62.50;;;;;;5063075;28;20121;-55
2022/05/28 09:54:36;;;;;;;18.13;4.47;;;20.40;62.60;;;;;;5032776;28;20157;-56
2022/05/28 09:57:20;;;;;;;16.75;4.03;;;20.40;62.40;;;;;;5033867;28;20036;-56
2022/05/28 09:59:54;;;;;;;12.18;3.90;;;20.40;62.50;;;;;;5034744;28;20024;-56
2022/05/28 10:02:31;;;;;;;13.07;4.03;;;20.40;62.40;;;;;;5034669;28;20029;-54
2022/05/28 10:05:13;;;;;;;13.65;4.00;;;20.40;62.30;;;;;;5031661;28;20025;-55
2022/05/28 10:07:47;;;;;;;13.18;4.15;;;20.50;62.30;;;;;;5042846;28;20465;-55
2022/05/28 10:10:15;;;;;;;12.88;4.03;;;20.50;62.30;;;;;;5041885;28;20037;-55
2022/05/28 10:12:41;;;;;;;14.27;3.80;;;20.50;62.30;;;;;;5033821;28;20041;-55
2022/05/28 10:15:11;;;;;;;12.70;3.80;;;20.50;62.20;;;;;;5032511;28;20482;-55
2022/05/28 10:17:37;;;;;;;13.52;4.00;;;20.50;62.20;;;;;;5034255;28;20033;-56
2022/05/28 10:20:14;;;;;;;12.02;3.70;;;20.50;62.10;;;;;;5031319;28;20021;-56
2022/05/28 10:22:40;;;;;;;13.85;3.67;;;20.50;62.10;;;;;;5029918;28;20033;-56
2022/05/28 10:25:13;;;;;;;14.10;4.32;;;20.60;62.10;;;;;;5042259;28;20021;-56
2022/05/28 10:27:50;;;;;;;12.15;3.72;;;20.60;62.00;;;;;;5040812;28;20033;-55
2022/05/28 10:30:33;;;;;;;14.93;3.90;;;20.60;62.00;;;;;;5063572;28;20486;-56
2022/05/28 10:33:03;;;;;;;12.90;3.85;;;20.60;62.10;;;;;;5029552;28;20641;-56
2022/05/28 10:35:31;;;;;;;13.60;3.80;;;20.60;62.00;;;;;;5035434;28;20025;-55
2022/05/28 10:38:29;;;;;;;14.00;3.97;;;20.60;62.00;;;;;;5036408;28;20063;-56
2022/05/28 10:40:54;;;;;;;13.68;3.90;;;20.60;61.90;;;;;;5020144;28;20048;-55
2022/05/28 10:43:30;;;;;;;12.30;3.95;;;20.60;61.90;;;;;;5018595;28;20560;-56
2022/05/28 10:46:18;;;;;;;12.25;3.90;;;20.70;61.90;;;;;;5016152;28;20113;-56
2022/05/28 10:49:08;;;;;;;13.15;3.28;;;20.70;61.80;;;;;;5026155;28;20520;-56
2022/05/28 10:51:58;;;;;;;12.93;3.50;;;20.70;61.80;;;;;;5026263;28;20041;-56
2022/05/28 10:54:24;;;;;;;12.98;3.90;;;20.70;61.80;;;;;;5023320;28;20545;-56
2022/05/28 10:57:20;;;;;;;10.30;3.13;;;20.70;61.80;;;;;;5027113;28;20136;-56
2022/05/28 10:59:54;;;;;;;14.35;3.95;;;20.70;61.80;;;;;;4943881;28;20051;-56
2022/05/28 11:02:19;;;;;;;12.90;3.58;;;20.70;61.80;;;;;;4946694;28;20035;-56
2022/05/28 11:04:49;;;;;;;11.43;3.35;;;20.80;61.90;;;;;;4948230;29;20062;-56
2022/05/28 11:07:20;;;;;;;11.98;3.33;;;20.80;61.80;;;;;;4948643;28;20043;-56
2022/05/28 11:09:54;;;;;;;12.02;3.50;;;20.80;61.80;;;;;;4948910;29;20038;-55
2022/05/28 11:12:56;;;;;;;11.57;3.78;;;20.80;61.70;;;;;;4945837;28;20050;-56
2022/05/28 11:15:49;;;;;;;11.38;3.60;;;20.80;61.70;;;;;;4933517;28;20047;-56
2022/05/28 11:18:33;;;;;;;14.20;3.80;;;20.80;61.70;;;;;;4987046;28;20046;-56
2022/05/28 11:21:31;;;;;;;11.97;3.23;;;20.80;61.60;;;;;;4983649;28;20063;-56
2022/05/28 11:24:21;;;;;;;7.90;3.08;;;20.90;61.60;;;;;;4985950;28;20422;-56
2022/05/28 11:27:09;;;;;;;11.35;3.50;;;20.90;61.60;;;;;;4983507;28;20070;-56
2022/05/28 11:29:56;;;;;;;11.00;3.45;;;20.90;61.50;;;;;;4982406;28;20058;-56
2022/05/28 11:32:30;;;;;;;11.40;3.53;;;20.90;61.50;;;;;;4986603;28;20042;-56
2022/05/28 11:35:09;;;;;;;11.13;3.60;;;20.90;61.60;;;;;;4962496;28;20038;-56
2022/05/28 11:37:38;;;;;;;13.45;3.75;;;21.00;61.50;;;;;;5026213;28;20060;-56
2022/05/28 11:40:07;;;;;;;12.75;3.50;;;21.00;61.50;;;;;;5033331;28;20063;-56
2022/05/28 11:43:01;;;;;;;10.45;3.45;;;20.90;61.40;;;;;;5060018;28;20041;-56
2022/05/28 11:45:43;;;;;;;11.80;3.83;;;21.00;61.40;;;;;;5042702;28;20434;-56
2022/05/28 11:51:27;;;;;;;11.25;3.15;;;21.00;61.30;;;;;;5042823;28;20063;-57
2022/05/28 11:51:27;;;;;;;13.13;3.38;;;21.00;61.10;;;;;;5047849;28;20041;-59
2022/05/28 11:53:54;;;;;;;;;;;21.10;60.10;;;;;;5046732;28;20461;-56
2022/05/28 11:56:24;;;;;;;13.80;3.85;;;21.10;60.10;;;;;;5047465;28;19916;-56
2022/05/28 11:58:52;;;;;;;13.40;3.42;;;21.10;60.30;;;;;;5052426;28;20044;-55
2022/05/28 12:01:24;;;;;;;14.48;3.63;;;21.20;60.10;;;;;;5025607;28;20045;-56
2022/05/28 12:03:52;;;;;;;15.50;3.70;;;21.10;58.80;;;;;;5040654;28;20032;-56
2022/05/28 12:06:37;;;;;;;15.70;4.05;;;21.10;58.50;;;;;;5037915;28;20079;-56
2022/05/28 12:09:06;;;;;;;16.70;5.30;;;21.20;58.50;;;;;;5040545;28;20030;-56
2022/05/28 12:11:50;;;;;;;29.05;12.55;;;21.20;57.50;;;;;;5044383;28;20025;-56
2022/05/28 12:14:36;;;;;;;34.20;15.37;;;21.10;57.40;;;;;;5036896;28;20036;-56
2022/05/28 12:17:09;;;;;;;27.67;14.73;;;21.20;57.10;;;;;;5052964;28;20081;-56
2022/05/28 12:19:43;;;;;;;31.63;18.40;;;21.20;58.10;;;;;;5027204;28;20025;-56
2022/05/28 12:22:41;;;;;;;32.00;14.50;;;21.20;56.60;;;;;;5042924;28;20041;-56
2022/05/28 12:25:14;;;;;;;29.05;12.20;;;21.20;56.50;;;;;;5040880;28;20098;-56
2022/05/28 12:27:47;;;;;;;26.48;11.88;;;21.20;55.80;;;;;;5037427;28;20041;-56
2022/05/28 12:30:43;;;;;;;23.37;10.17;;;21.20;55.80;;;;;;5038333;28;20027;-56
2022/05/28 12:33:17;;;;;;;;;;;21.30;55.10;;;;;;5036120;28;20037;-56
2022/05/28 12:36:01;;;;;;;20.20;8.95;;;21.30;55.70;;;;;;5035217;28;19963;-56
2022/05/28 12:38:48;;;;;;;20.40;8.47;;;21.30;56.10;;;;;;5042741;28;20111;-56
2022/05/28 12:41:25;;;;;;;19.30;7.82;;;21.30;55.30;;;;;;5039079;28;20288;-56
2022/05/28 12:43:56;;;;;;;16.40;6.10;;;21.40;55.50;;;;;;5036463;28;20029;-56
2022/05/28 12:46:36;;;;;;;20.13;6.10;;;21.30;55.00;;;;;;5050248;28;20021;-57
2022/05/28 12:49:18;;;;;;;17.58;5.22;;;21.40;54.50;;;;;;5041569;28;20036;-56
2022/05/28 12:52:12;;;;;;;18.20;5.03;;;21.30;53.60;;;;;;5041039;28;20091;-56
2022/05/28 12:54:39;;;;;;;19.35;5.18;;;21.40;53.60;;;;;;5043211;28;20029;-56
2022/05/28 12:57:25;;;;;;;18.40;5.03;;;21.40;54.80;;;;;;5042538;28;20029;-56
2022/05/28 13:00:04;;;;;;;16.55;4.25;;;21.40;54.40;;;;;;5037464;28;20464;-56